Time,TemperatureF,DewpointF,PressureIn,WindDirection,WindDirectionDegrees,WindSpeedMPH,WindSpeedGustMPH,Humidity,HourlyPrecipIn,Conditions,Clouds,dailyrainin,SoftwareType,DateUTC
2013-08-01 00:03:00,75.3,66.8,29.97,WSW,248,0.0,0.0,75,0.00,,,0.00,Wunderground v.1.15,2013-08-01 06:03:00,
2013-08-01 00:09:00,74.9,67.6,29.97,WSW,248,0.0,0.0,78,0.00,,,0.00,Wunderground v.1.15,2013-08-01 06:09:00,
2013-08-01 00:14:00,74.5,67.6,29.97,WSW,248,0.0,0.0,79,0.00,,,0.00,Wunderground v.1.15,2013-08-01 06:14:00,
2013-08-01 00:20:00,74.1,67.5,29.97,WSW,248,0.0,0.0,80,0.00,,,0.00,Wunderground v.1.15,2013-08-01 06:20:00,
2013-08-01 00:26:00,73.9,67.3,29.97,WSW,248,0.0,0.0,80,0.00,,,0.00,Wunderground v.1.15,2013-08-01 06:26:00,
2013-08-01 00:31:00,73.9,67.3,29.97,WSW,248,0.0,0.0,80,0.00,,,0.00,Wunderground v.1.15,2013-08-01 06:31:00,
2013-08-01 00:37:00,73.9,67.0,29.97,WSW,248,0.0,0.0,79,0.00,,,0.00,Wunderground v.1.15,2013-08-01 06:37:00,
2013-08-01 00:43:00,73.9,67.3,29.97,WSW,248,0.0,0.0,80,0.00,,,0.00,Wunderground v.1.15,2013-08-01 06:43:00,
2013-08-01 00:48:00,73.9,67.0,29.97,WSW,248,0.0,0.0,79,0.00,,,0.00,Wunderground v.1.15,2013-08-01 06:48:00,
2013-08-01 00:54:00,74.0,67.8,29.97,WSW,248,0.0,0.0,81,0.00,,,0.00,Wunderground v.1.15,2013-08-01 06:54:00,
2013-08-01 01:00:00,73.8,67.2,29.96,WSW,248,0.0,0.0,80,0.00,,,0.00,Wunderground v.1.15,2013-08-01 07:00:00,
2013-08-01 01:06:00,73.8,68.0,29.96,WSW,248,0.0,0.0,82,0.00,,,0.00,Wunderground v.1.15,2013-08-01 07:06:00,
2013-08-01 01:12:00,73.7,67.9,29.96,WSW,248,0.0,0.0,82,0.00,,,0.00,Wunderground v.1.15,2013-08-01 07:12:00,
2013-08-01 01:17:00,73.6,67.0,29.97,WSW,248,0.0,0.0,80,0.00,,,0.00,Wunderground v.1.15,2013-08-01 07:17:00,
2013-08-01 01:23:00,73.7,66.4,29.97,WSW,257,0.0,0.0,78,0.00,,,0.00,Wunderground v.1.15,2013-08-01 07:23:00,
2013-08-01 01:29:00,74.4,66.0,29.97,West,267,0.0,0.0,75,0.00,,,0.00,Wunderground v.1.15,2013-08-01 07:29:00,
2013-08-01 01:35:00,75.1,65.9,29.97,WNW,292,0.0,0.0,73,0.00,,,0.00,Wunderground v.1.15,2013-08-01 07:35:00,
2013-08-01 01:41:00,75.3,65.2,29.97,NW,313,0.0,0.0,71,0.00,,,0.00,Wunderground v.1.15,2013-08-01 07:41:00,
2013-08-01 01:46:00,75.3,65.6,29.97,NW,313,0.0,0.0,72,0.00,,,0.00,Wunderground v.1.15,2013-08-01 07:46:00,
2013-08-01 01:52:00,75.2,64.7,29.97,West,277,1.0,7.0,70,0.00,,,0.00,Wunderground v.1.15,2013-08-01 07:52:00,
2013-08-01 01:58:00,75.3,64.8,29.97,West,272,1.0,7.0,70,0.00,,,0.00,Wunderground v.1.15,2013-08-01 07:58:00,
2013-08-01 02:04:00,75.2,64.7,29.97,West,278,0.0,4.0,70,0.00,,,0.00,Wunderground v.1.15,2013-08-01 08:04:00,
2013-08-01 02:10:00,75.0,64.5,29.97,WNW,294,1.0,1.0,70,0.00,,,0.00,Wunderground v.1.15,2013-08-01 08:10:00,
2013-08-01 02:18:00,74.8,64.8,29.98,WNW,294,0.0,1.0,71,0.00,,,0.00,Wunderground v.1.15,2013-08-01 08:18:00,
2013-08-01 02:23:00,74.7,64.3,29.98,WNW,294,0.0,0.0,70,0.00,,,0.00,Wunderground v.1.15,2013-08-01 08:23:00,
2013-08-01 02:29:00,74.6,64.6,29.98,WNW,294,0.0,0.0,71,0.00,,,0.00,Wunderground v.1.15,2013-08-01 08:29:00,
2013-08-01 02:34:00,74.5,65.7,29.98,WNW,294,0.0,0.0,74,0.00,,,0.00,Wunderground v.1.15,2013-08-01 08:34:00,
2013-08-01 02:40:00,74.2,65.0,29.97,NE,40,0.0,0.0,73,0.00,,,0.00,Wunderground v.1.15,2013-08-01 08:40:00,
2013-08-01 02:46:00,74.0,64.8,29.97,NE,40,0.0,0.0,73,0.00,,,0.00,Wunderground v.1.15,2013-08-01 08:46:00,
2013-08-01 02:52:00,73.8,64.6,29.96,NW,305,0.0,0.0,73,0.00,,,0.00,Wunderground v.1.15,2013-08-01 08:52:00,
2013-08-01 02:57:00,73.7,64.9,29.95,NW,306,0.0,0.0,74,0.00,,,0.00,Wunderground v.1.15,2013-08-01 08:57:00,
2013-08-01 03:03:00,73.5,65.1,29.95,NW,306,0.0,0.0,75,0.00,,,0.00,Wunderground v.1.15,2013-08-01 09:03:00,
2013-08-01 03:11:00,73.2,65.6,29.94,NW,306,0.0,0.0,77,0.00,,,0.00,Wunderground v.1.15,2013-08-01 09:11:00,
2013-08-01 03:17:00,72.8,65.2,29.94,NW,306,0.0,0.0,77,0.00,,,0.00,Wunderground v.1.15,2013-08-01 09:17:00,
2013-08-01 03:22:00,72.8,65.2,29.94,NW,307,0.0,0.0,77,0.00,,,0.00,Wunderground v.1.15,2013-08-01 09:22:00,
2013-08-01 03:28:00,72.9,65.3,29.94,NW,308,0.0,0.0,77,0.00,,,0.00,Wunderground v.1.15,2013-08-01 09:28:00,
2013-08-01 03:34:00,73.1,65.1,29.94,NW,307,0.0,0.0,76,0.00,,,0.00,Wunderground v.1.15,2013-08-01 09:34:00,
2013-08-01 03:44:00,73.5,65.8,29.94,NW,308,0.0,0.0,77,0.00,,,0.00,Wunderground v.1.15,2013-08-01 09:44:00,
2013-08-01 03:50:00,73.6,65.6,29.94,NW,308,0.0,0.0,76,0.00,,,0.00,Wunderground v.1.15,2013-08-01 09:50:00,
2013-08-01 03:56:00,73.7,65.3,29.94,North,5,0.0,0.0,75,0.00,,,0.00,Wunderground v.1.15,2013-08-01 09:56:00,
2013-08-01 04:01:00,74.0,64.8,29.94,North,360,0.0,0.0,73,0.00,,,0.00,Wunderground v.1.15,2013-08-01 10:01:00,
2013-08-01 04:07:00,74.4,64.0,29.94,NNW,337,1.0,3.0,70,0.00,,,0.00,Wunderground v.1.15,2013-08-01 10:07:00,
2013-08-01 04:14:00,74.7,63.9,29.94,WNW,300,0.0,2.0,69,0.00,,,0.00,Wunderground v.1.15,2013-08-01 10:14:00,
2013-08-01 04:20:00,74.8,63.9,29.94,NW,322,0.0,0.0,69,0.00,,,0.00,Wunderground v.1.15,2013-08-01 10:20:00,
2013-08-01 04:26:00,74.8,63.9,29.94,NW,322,0.0,0.0,69,0.00,,,0.00,Wunderground v.1.15,2013-08-01 10:26:00,
2013-08-01 04:32:00,74.7,63.9,29.94,NW,322,0.0,0.0,69,0.00,,,0.00,Wunderground v.1.15,2013-08-01 10:32:00,
2013-08-01 04:37:00,74.7,63.4,29.94,NW,322,0.0,0.0,68,0.00,,,0.00,Wunderground v.1.15,2013-08-01 10:37:00,
2013-08-01 04:43:00,74.7,63.9,29.93,NW,322,0.0,0.0,69,0.00,,,0.00,Wunderground v.1.15,2013-08-01 10:43:00,
2013-08-01 04:49:00,74.7,63.9,29.94,NW,322,0.0,0.0,69,0.00,,,0.00,Wunderground v.1.15,2013-08-01 10:49:00,
2013-08-01 04:54:00,74.6,64.6,29.93,NW,322,0.0,0.0,71,0.00,,,0.00,Wunderground v.1.15,2013-08-01 10:54:00,
2013-08-01 05:02:00,74.4,63.6,29.94,NW,322,0.0,0.0,69,0.00,,,0.00,Wunderground v.1.15,2013-08-01 11:02:00,
2013-08-01 05:08:00,74.5,63.7,29.94,NW,322,0.0,0.0,69,0.00,,,0.00,Wunderground v.1.15,2013-08-01 11:08:00,
2013-08-01 05:14:00,74.4,64.4,29.93,NW,322,0.0,0.0,71,0.00,,,0.00,Wunderground v.1.15,2013-08-01 11:14:00,
2013-08-01 05:19:00,74.1,64.5,29.94,NW,322,0.0,0.0,72,0.00,,,0.00,Wunderground v.1.15,2013-08-01 11:19:00,
2013-08-01 05:28:00,73.6,65.6,29.94,NW,322,0.0,0.0,76,0.00,,,0.00,Wunderground v.1.15,2013-08-01 11:28:00,
2013-08-01 05:33:00,73.2,65.9,29.95,NW,322,0.0,0.0,78,0.00,,,0.00,Wunderground v.1.15,2013-08-01 11:33:00,
2013-08-01 05:39:00,72.7,65.8,29.94,NW,322,0.0,0.0,79,0.00,,,0.00,Wunderground v.1.15,2013-08-01 11:39:00,
2013-08-01 05:45:00,72.4,65.9,29.95,NW,322,0.0,0.0,80,0.00,,,0.00,Wunderground v.1.15,2013-08-01 11:45:00,
2013-08-01 05:50:00,72.2,66.4,29.95,NW,322,0.0,0.0,82,0.00,,,0.00,Wunderground v.1.15,2013-08-01 11:50:00,
2013-08-01 05:56:00,72.0,65.1,29.95,NW,322,0.0,0.0,79,0.00,,,0.00,Wunderground v.1.15,2013-08-01 11:56:00,
2013-08-01 06:02:00,72.0,65.1,29.95,WNW,291,0.0,1.0,79,0.00,,,0.00,Wunderground v.1.15,2013-08-01 12:02:00,
2013-08-01 06:09:00,71.9,65.0,29.95,West,268,0.0,2.0,79,0.00,,,0.00,Wunderground v.1.15,2013-08-01 12:09:00,
2013-08-01 06:14:00,71.7,64.8,29.95,West,265,0.0,0.0,79,0.00,,,0.00,Wunderground v.1.15,2013-08-01 12:14:00,
2013-08-01 06:20:00,71.7,64.8,29.96,West,265,0.0,0.0,79,0.00,,,0.00,Wunderground v.1.15,2013-08-01 12:20:00,
2013-08-01 06:26:00,71.5,65.0,29.97,West,265,0.0,0.0,80,0.00,,,0.00,Wunderground v.1.15,2013-08-01 12:26:00,
2013-08-01 06:31:00,71.4,65.3,29.96,West,265,0.0,0.0,81,0.00,,,0.00,Wunderground v.1.15,2013-08-01 12:31:00,
2013-08-01 06:37:00,71.3,65.5,29.96,West,265,0.0,0.0,82,0.00,,,0.00,Wunderground v.1.15,2013-08-01 12:37:00,
2013-08-01 06:42:00,71.2,65.8,29.97,West,265,0.0,0.0,83,0.00,,,0.00,Wunderground v.1.15,2013-08-01 12:42:00,
2013-08-01 06:48:00,70.8,65.7,29.97,West,265,0.0,0.0,84,0.00,,,0.00,Wunderground v.1.15,2013-08-01 12:48:00,
2013-08-01 06:54:00,70.7,66.0,29.97,West,265,0.0,0.0,85,0.00,,,0.00,Wunderground v.1.15,2013-08-01 12:54:00,
2013-08-01 06:59:00,70.8,66.4,29.98,West,265,0.0,0.0,86,0.00,,,0.00,Wunderground v.1.15,2013-08-01 12:59:00,
2013-08-01 07:05:00,71.0,66.3,29.98,West,265,0.0,0.0,85,0.00,,,0.00,Wunderground v.1.15,2013-08-01 13:05:00,
2013-08-01 07:10:00,71.3,66.2,29.98,West,265,0.0,0.0,84,0.00,,,0.00,Wunderground v.1.15,2013-08-01 13:10:00,
2013-08-01 07:15:00,71.7,66.3,29.98,WSW,250,0.0,0.0,83,0.00,,,0.00,Wunderground v.1.15,2013-08-01 13:15:00,
2013-08-01 07:20:00,72.1,66.6,29.98,SW,226,0.0,0.0,83,0.00,,,0.00,Wunderground v.1.15,2013-08-01 13:20:00,
2013-08-01 07:27:00,72.9,66.4,29.99,SW,224,0.0,0.0,80,0.00,,,0.00,Wunderground v.1.15,2013-08-01 13:27:00,
2013-08-01 07:33:00,73.6,65.9,29.99,SSE,166,0.0,0.0,77,0.00,,,0.00,Wunderground v.1.15,2013-08-01 13:33:00,
2013-08-01 07:39:00,74.5,65.7,29.99,SSE,150,0.0,0.0,74,0.00,,,0.00,Wunderground v.1.15,2013-08-01 13:39:00,
2013-08-01 07:45:00,75.4,65.7,29.99,SSE,151,2.0,8.0,72,0.00,,,0.00,Wunderground v.1.15,2013-08-01 13:45:00,
2013-08-01 07:50:00,76.0,66.3,29.99,SSE,155,4.0,5.0,72,0.00,,,0.00,Wunderground v.1.15,2013-08-01 13:50:00,
2013-08-01 07:56:00,76.6,66.1,29.99,SSE,162,4.0,6.0,70,0.00,,,0.00,Wunderground v.1.15,2013-08-01 13:56:00,
2013-08-01 08:02:00,77.1,66.1,29.99,SSE,167,4.0,6.0,69,0.00,,,0.00,Wunderground v.1.15,2013-08-01 14:02:00,
2013-08-01 08:08:00,77.6,66.2,29.99,SSE,150,4.0,6.0,68,0.00,,,0.00,Wunderground v.1.15,2013-08-01 14:08:00,
2013-08-01 08:17:00,78.2,66.3,30.00,SE,144,4.0,5.0,67,0.00,,,0.00,Wunderground v.1.15,2013-08-01 14:17:00,
2013-08-01 08:23:00,78.5,66.2,30.00,ESE,119,4.0,6.0,66,0.00,,,0.00,Wunderground v.1.15,2013-08-01 14:23:00,
2013-08-01 08:29:00,78.8,66.5,30.00,SSE,151,3.0,6.0,66,0.00,,,0.00,Wunderground v.1.15,2013-08-01 14:29:00,
2013-08-01 08:34:00,79.2,66.4,30.00,SE,125,2.0,3.0,65,0.00,,,0.00,Wunderground v.1.15,2013-08-01 14:34:00,
2013-08-01 08:42:00,79.9,64.3,30.00,SE,145,4.0,5.0,59,0.00,,,0.00,Wunderground v.1.15,2013-08-01 14:42:00,
2013-08-01 08:47:00,80.1,64.0,30.00,ESE,121,5.0,7.0,58,0.00,,,0.00,Wunderground v.1.15,2013-08-01 14:47:00,
2013-08-01 08:53:00,80.4,63.8,30.00,SE,134,4.0,6.0,57,0.00,,,0.00,Wunderground v.1.15,2013-08-01 14:53:00,
2013-08-01 08:59:00,80.7,63.5,30.00,SSE,165,2.0,6.0,56,0.00,,,0.00,Wunderground v.1.15,2013-08-01 14:59:00,
2013-08-01 09:05:00,81.0,62.8,29.99,SE,126,0.0,2.0,54,0.00,,,0.00,Wunderground v.1.15,2013-08-01 15:05:00,
2013-08-01 09:10:00,81.1,62.3,29.99,SE,126,0.0,0.0,53,0.00,,,0.00,Wunderground v.1.15,2013-08-01 15:10:00,
2013-08-01 09:15:00,81.2,63.5,29.99,SE,126,0.0,0.0,55,0.00,,,0.00,Wunderground v.1.15,2013-08-01 15:15:00,
2013-08-01 09:21:00,81.6,65.4,29.99,ESE,107,0.0,0.0,58,0.00,,,0.00,Wunderground v.1.15,2013-08-01 15:21:00,
2013-08-01 09:29:00,81.9,64.7,29.99,ESE,106,0.0,0.0,56,0.00,,,0.00,Wunderground v.1.15,2013-08-01 15:29:00,
2013-08-01 09:34:00,82.1,63.3,29.99,ESE,106,0.0,0.0,53,0.00,,,0.00,Wunderground v.1.15,2013-08-01 15:34:00,
2013-08-01 09:40:00,82.2,63.4,29.99,ESE,105,0.0,0.0,53,0.00,,,0.00,Wunderground v.1.15,2013-08-01 15:40:00,
2013-08-01 09:45:00,82.3,65.5,29.98,ESE,105,0.0,0.0,57,0.00,,,0.00,Wunderground v.1.15,2013-08-01 15:45:00,
2013-08-01 09:52:00,82.9,65.1,29.99,ENE,75,0.0,0.0,55,0.00,,,0.00,Wunderground v.1.15,2013-08-01 15:52:00,
2013-08-01 09:58:00,83.6,64.7,29.99,ENE,75,0.0,0.0,53,0.00,,,0.00,Wunderground v.1.15,2013-08-01 15:58:00,
2013-08-01 10:03:00,84.2,63.0,29.98,ENE,75,0.0,0.0,49,0.00,,,0.00,Wunderground v.1.15,2013-08-01 16:03:00,
2013-08-01 10:10:00,84.2,62.4,29.98,ENE,75,0.0,0.0,48,0.00,,,0.00,Wunderground v.1.15,2013-08-01 16:10:00,
2013-08-01 10:15:00,84.5,63.2,29.98,ENE,76,0.0,0.0,49,0.00,,,0.00,Wunderground v.1.15,2013-08-01 16:15:00,
2013-08-01 10:20:00,84.4,63.2,29.98,ENE,76,0.0,0.0,49,0.00,,,0.00,Wunderground v.1.15,2013-08-01 16:20:00,
2013-08-01 10:26:00,84.2,63.0,29.98,SE,126,0.0,1.0,49,0.00,,,0.00,Wunderground v.1.15,2013-08-01 16:26:00,
2013-08-01 10:32:00,84.3,63.6,29.97,SE,126,0.0,0.0,50,0.00,,,0.00,Wunderground v.1.15,2013-08-01 16:32:00,
2013-08-01 10:40:00,84.6,62.7,29.97,SE,130,0.0,0.0,48,0.00,,,0.00,Wunderground v.1.15,2013-08-01 16:40:00,
2013-08-01 10:46:00,84.9,62.4,29.97,SE,140,0.0,0.0,47,0.00,,,0.00,Wunderground v.1.15,2013-08-01 16:46:00,
2013-08-01 10:52:00,85.7,64.3,29.97,SE,140,0.0,0.0,49,0.00,,,0.00,Wunderground v.1.15,2013-08-01 16:52:00,
2013-08-01 10:58:00,86.4,64.4,29.97,SSW,206,0.0,4.0,48,0.00,,,0.00,Wunderground v.1.15,2013-08-01 16:58:00,
2013-08-01 11:03:00,86.0,62.2,29.97,SSW,196,0.0,0.0,45,0.00,,,0.00,Wunderground v.1.15,2013-08-01 17:03:00,
2013-08-01 11:09:00,86.5,63.3,29.96,SSW,196,0.0,0.0,46,0.00,,,0.00,Wunderground v.1.15,2013-08-01 17:09:00,
2013-08-01 11:15:00,86.8,63.5,29.96,South,191,0.0,0.0,46,0.00,,,0.00,Wunderground v.1.15,2013-08-01 17:15:00,
2013-08-01 11:21:00,87.2,63.3,29.96,South,189,0.0,0.0,45,0.00,,,0.00,Wunderground v.1.15,2013-08-01 17:21:00,
2013-08-01 11:29:00,87.4,63.5,29.95,SSE,167,2.0,5.0,45,0.00,,,0.00,Wunderground v.1.15,2013-08-01 17:29:00,
2013-08-01 11:34:00,87.6,63.0,29.95,South,179,3.0,4.0,44,0.00,,,0.00,Wunderground v.1.15,2013-08-01 17:34:00,
2013-08-01 11:39:00,87.9,63.3,29.95,South,182,2.0,4.0,44,0.00,,,0.00,Wunderground v.1.15,2013-08-01 17:39:00,
2013-08-01 11:44:00,88.0,62.0,29.95,South,180,3.0,4.0,42,0.00,,,0.00,Wunderground v.1.15,2013-08-01 17:44:00,
2013-08-01 11:50:00,88.2,63.5,29.94,South,173,3.0,6.0,44,0.00,,,0.00,Wunderground v.1.15,2013-08-01 17:50:00,
2013-08-01 11:57:00,88.4,62.4,29.94,SSE,163,3.0,6.0,42,0.00,,,0.00,Wunderground v.1.15,2013-08-01 17:57:00,
2013-08-01 12:02:00,88.6,61.2,29.94,ESE,115,3.0,4.0,40,0.00,,,0.00,Wunderground v.1.15,2013-08-01 18:02:00,
2013-08-01 12:07:00,89.0,63.6,29.94,SSE,148,2.0,7.0,43,0.00,,,0.00,Wunderground v.1.15,2013-08-01 18:07:00,
2013-08-01 12:13:00,89.1,60.2,29.94,South,170,3.0,10.0,38,0.00,,,0.00,Wunderground v.1.15,2013-08-01 18:13:00,
2013-08-01 12:18:00,89.3,62.5,29.93,SE,140,4.0,10.0,41,0.00,,,0.00,Wunderground v.1.15,2013-08-01 18:18:00,
2013-08-01 12:23:00,89.6,62.8,29.93,SE,125,3.0,5.0,41,0.00,,,0.00,Wunderground v.1.15,2013-08-01 18:23:00,
2013-08-01 12:28:00,89.9,61.6,29.93,ESE,121,2.0,10.0,39,0.00,,,0.00,Wunderground v.1.15,2013-08-01 18:28:00,
2013-08-01 12:34:00,90.3,61.2,29.92,ESE,107,3.0,6.0,38,0.00,,,0.00,Wunderground v.1.15,2013-08-01 18:34:00,
2013-08-01 12:40:00,90.7,59.3,29.93,East,79,2.0,5.0,35,0.00,,,0.00,Wunderground v.1.15,2013-08-01 18:40:00,
2013-08-01 12:46:00,91.0,59.5,29.92,ENE,74,2.0,6.0,35,0.00,,,0.00,Wunderground v.1.15,2013-08-01 18:46:00,
2013-08-01 12:53:00,91.5,59.2,29.92,ESE,123,2.0,2.0,34,0.00,,,0.00,Wunderground v.1.15,2013-08-01 18:53:00,
2013-08-01 12:59:00,91.6,59.3,29.92,SE,143,4.0,9.0,34,0.00,,,0.00,Wunderground v.1.15,2013-08-01 18:59:00,
2013-08-01 13:05:00,91.5,58.3,29.92,ESE,106,4.0,13.0,33,0.00,,,0.00,Wunderground v.1.15,2013-08-01 19:05:00,
2013-08-01 13:10:00,91.7,55.9,29.91,ESE,111,5.0,5.0,30,0.00,,,0.00,Wunderground v.1.15,2013-08-01 19:10:00,
2013-08-01 13:16:00,92.0,57.9,29.91,East,96,5.0,8.0,32,0.00,,,0.00,Wunderground v.1.15,2013-08-01 19:16:00,
2013-08-01 13:22:00,92.1,57.1,29.91,East,99,2.0,3.0,31,0.00,,,0.00,Wunderground v.1.15,2013-08-01 19:22:00,
2013-08-01 13:28:00,92.3,55.4,29.91,SSE,152,4.0,13.0,29,0.00,,,0.00,Wunderground v.1.15,2013-08-01 19:28:00,
2013-08-01 13:33:00,92.6,55.7,29.91,SSE,152,7.0,10.0,29,0.00,,,0.00,Wunderground v.1.15,2013-08-01 19:33:00,
2013-08-01 13:40:00,92.7,55.8,29.91,SE,127,6.0,6.0,29,0.00,,,0.00,Wunderground v.1.15,2013-08-01 19:40:00,
2013-08-01 13:48:00,92.8,55.9,29.90,SE,134,6.0,7.0,29,0.00,,,0.00,Wunderground v.1.15,2013-08-01 19:48:00,
2013-08-01 13:54:00,92.8,57.7,29.90,SE,138,4.0,5.0,31,0.00,,,0.00,Wunderground v.1.15,2013-08-01 19:54:00,
2013-08-01 13:59:00,93.0,57.0,29.90,ESE,121,3.0,7.0,30,0.00,,,0.00,Wunderground v.1.15,2013-08-01 19:59:00,
2013-08-01 14:05:00,93.1,56.1,29.90,ESE,106,4.0,10.0,29,0.00,,,0.00,Wunderground v.1.15,2013-08-01 20:05:00,
2013-08-01 14:11:00,93.1,57.1,29.89,SE,141,4.0,5.0,30,0.00,,,0.00,Wunderground v.1.15,2013-08-01 20:11:00,
2013-08-01 14:17:00,93.5,57.4,29.89,SE,134,4.0,9.0,30,0.00,,,0.00,Wunderground v.1.15,2013-08-01 20:17:00,
2013-08-01 14:22:00,93.4,56.4,29.88,SE,138,4.0,4.0,29,0.00,,,0.00,Wunderground v.1.15,2013-08-01 20:22:00,
2013-08-01 14:27:00,93.7,57.6,29.88,ESE,123,3.0,8.0,30,0.00,,,0.00,Wunderground v.1.15,2013-08-01 20:27:00,
2013-08-01 14:32:00,93.9,55.8,29.88,SE,137,4.0,12.0,28,0.00,,,0.00,Wunderground v.1.15,2013-08-01 20:32:00,
2013-08-01 14:37:00,94.1,57.0,29.88,SE,132,5.0,12.0,29,0.00,,,0.00,Wunderground v.1.15,2013-08-01 20:37:00,
2013-08-01 14:43:00,94.1,57.0,29.88,SE,145,3.0,5.0,29,0.00,,,0.00,Wunderground v.1.15,2013-08-01 20:43:00,
2013-08-01 14:49:00,94.5,58.3,29.87,SSE,152,3.0,10.0,30,0.00,,,0.00,Wunderground v.1.15,2013-08-01 20:49:00,
2013-08-01 14:55:00,94.7,57.5,29.87,South,190,5.0,7.0,29,0.00,,,0.00,Wunderground v.1.15,2013-08-01 20:55:00,
2013-08-01 15:00:00,94.6,55.4,29.87,SSE,157,5.0,5.0,27,0.00,,,0.00,Wunderground v.1.15,2013-08-01 21:00:00,
2013-08-01 15:06:00,94.5,57.3,29.87,South,173,4.0,9.0,29,0.00,,,0.00,Wunderground v.1.15,2013-08-01 21:06:00,
2013-08-01 15:12:00,94.6,56.4,29.86,SE,146,4.0,10.0,28,0.00,,,0.00,Wunderground v.1.15,2013-08-01 21:12:00,
2013-08-01 15:18:00,94.7,55.5,29.86,SE,142,5.0,11.0,27,0.00,,,0.00,Wunderground v.1.15,2013-08-01 21:18:00,
2013-08-01 15:24:00,94.6,56.4,29.86,ESE,105,5.0,6.0,28,0.00,,,0.00,Wunderground v.1.15,2013-08-01 21:24:00,
2013-08-01 15:29:00,94.8,54.6,29.85,South,186,3.0,6.0,26,0.00,,,0.00,Wunderground v.1.15,2013-08-01 21:29:00,
2013-08-01 15:34:00,95.0,56.8,29.85,SSW,192,3.0,6.0,28,0.00,,,0.00,Wunderground v.1.15,2013-08-01 21:34:00,
2013-08-01 15:40:00,95.0,56.8,29.85,South,180,5.0,5.0,28,0.00,,,0.00,Wunderground v.1.15,2013-08-01 21:40:00,
2013-08-01 15:46:00,95.0,55.8,29.85,SE,143,5.0,12.0,27,0.00,,,0.00,Wunderground v.1.15,2013-08-01 21:46:00,
2013-08-01 15:52:00,95.1,55.9,29.84,SE,124,4.0,5.0,27,0.00,,,0.00,Wunderground v.1.15,2013-08-01 21:52:00,
2013-08-01 15:58:00,95.1,53.7,29.84,SSE,148,4.0,10.0,25,0.00,,,0.00,Wunderground v.1.15,2013-08-01 21:58:00,
2013-08-01 16:03:00,95.2,53.8,29.84,SE,138,5.0,8.0,25,0.00,,,0.00,Wunderground v.1.15,2013-08-01 22:03:00,
2013-08-01 16:09:00,95.3,55.0,29.84,SSW,212,3.0,8.0,26,0.00,,,0.00,Wunderground v.1.15,2013-08-01 22:09:00,
2013-08-01 16:14:00,95.5,54.1,29.84,SSW,199,2.0,4.0,25,0.00,,,0.00,Wunderground v.1.15,2013-08-01 22:14:00,
2013-08-01 16:20:00,95.4,56.1,29.84,SSE,160,2.0,7.0,27,0.00,,,0.00,Wunderground v.1.15,2013-08-01 22:20:00,
2013-08-01 16:25:00,95.3,55.0,29.83,South,189,4.0,7.0,26,0.00,,,0.00,Wunderground v.1.15,2013-08-01 22:25:00,
2013-08-01 16:31:00,95.4,55.1,29.83,SSW,203,4.0,7.0,26,0.00,,,0.00,Wunderground v.1.15,2013-08-01 22:31:00,
2013-08-01 16:37:00,95.4,54.0,29.83,South,180,2.0,7.0,25,0.00,,,0.00,Wunderground v.1.15,2013-08-01 22:37:00,
2013-08-01 21:49:00,77.8,62.3,29.86,SSE,149,0.0,7.0,59,0.00,,,0.00,Wunderground v.1.15,2013-08-02 03:49:00,
2013-08-01 21:55:00,77.6,61.7,29.85,SSE,149,0.0,7.0,58,0.00,,,0.00,Wunderground v.1.15,2013-08-02 03:55:00,
2013-08-01 22:00:00,77.4,61.5,29.85,SSE,149,0.0,0.0,58,0.00,,,0.00,Wunderground v.1.15,2013-08-02 04:00:00,
2013-08-01 22:01:00,77.3,61.4,29.85,SSE,149,0.0,0.0,58,0.00,,,0.00,Wunderground v.1.15,2013-08-02 04:01:00,
2013-08-01 22:02:00,77.3,61.4,29.85,SSE,149,0.0,0.0,58,0.00,,,0.00,Wunderground v.1.15,2013-08-02 04:02:00,
2013-08-01 22:03:00,77.3,61.4,29.85,SSE,149,0.0,0.0,58,0.00,,,0.00,Wunderground v.1.15,2013-08-02 04:03:00,
2013-08-01 22:06:00,77.1,60.7,29.85,SSE,149,0.0,0.0,57,0.00,,,0.00,Wunderground v.1.15,2013-08-02 04:06:00,
2013-08-01 22:07:00,77.0,60.6,29.86,SSE,149,0.0,0.0,57,0.00,,,0.00,Wunderground v.1.15,2013-08-02 04:07:00,
2013-08-01 22:13:00,76.7,60.3,29.85,SSE,149,0.0,0.0,57,0.00,,,0.00,Wunderground v.1.15,2013-08-02 04:13:00,
2013-08-01 22:19:00,76.4,60.5,29.86,SSE,149,0.0,0.0,58,0.00,,,0.00,Wunderground v.1.15,2013-08-02 04:19:00,
2013-08-01 22:20:00,76.4,60.5,29.86,SSE,149,0.0,0.0,58,0.00,,,0.00,Wunderground v.1.15,2013-08-02 04:20:00,
2013-08-01 22:25:00,76.1,61.2,29.86,SSE,149,0.0,0.0,60,0.00,,,0.00,Wunderground v.1.15,2013-08-02 04:25:00,
2013-08-01 22:31:00,76.0,61.6,29.86,SSE,149,0.0,0.0,61,0.00,,,0.00,Wunderground v.1.15,2013-08-02 04:31:00,
2013-08-01 22:37:00,76.6,58.2,29.85,SSE,149,0.0,0.0,53,0.00,,,0.00,Wunderground v.1.15,2013-08-02 04:37:00,
2013-08-01 22:42:00,77.6,59.6,29.86,SSE,149,0.0,0.0,54,0.00,,,0.00,Wunderground v.1.15,2013-08-02 04:42:00,
2013-08-01 22:48:00,78.3,59.8,29.85,SSE,149,0.0,0.0,53,0.00,,,0.00,Wunderground v.1.15,2013-08-02 04:48:00,
2013-08-01 22:54:00,78.4,58.2,29.85,SSE,149,0.0,0.0,50,0.00,,,0.00,Wunderground v.1.15,2013-08-02 04:54:00,
2013-08-01 22:59:00,78.3,58.1,29.86,SSE,149,0.0,0.0,50,0.00,,,0.00,Wunderground v.1.15,2013-08-02 04:59:00,
2013-08-01 23:05:00,78.3,61.3,29.85,SSE,149,0.0,0.0,56,0.00,,,0.00,Wunderground v.1.15,2013-08-02 05:05:00,
2013-08-01 23:10:00,78.1,61.6,29.85,SSE,149,0.0,0.0,57,0.00,,,0.00,Wunderground v.1.15,2013-08-02 05:10:00,
2013-08-01 23:16:00,77.5,63.0,29.86,WSW,256,1.0,4.0,61,0.00,,,0.00,Wunderground v.1.15,2013-08-02 05:16:00,
2013-08-01 23:22:00,77.1,63.5,29.85,WSW,256,1.0,1.0,63,0.00,,,0.00,Wunderground v.1.15,2013-08-02 05:22:00,
2013-08-01 23:28:00,76.8,64.1,29.85,WSW,256,0.0,1.0,65,0.00,,,0.00,Wunderground v.1.15,2013-08-02 05:28:00,
2013-08-01 23:33:00,76.6,64.0,29.85,WSW,256,0.0,0.0,65,0.00,,,0.00,Wunderground v.1.15,2013-08-02 05:33:00,
2013-08-01 23:38:00,76.4,64.6,29.86,WSW,256,0.0,0.0,67,0.00,,,0.00,Wunderground v.1.15,2013-08-02 05:38:00,
2013-08-01 23:44:00,76.0,65.1,29.85,WSW,256,0.0,0.0,69,0.00,,,0.00,Wunderground v.1.15,2013-08-02 05:44:00,
2013-08-01 23:50:00,75.6,64.3,29.85,WSW,256,0.0,0.0,68,0.00,,,0.00,Wunderground v.1.15,2013-08-02 05:50:00,
2013-08-01 23:56:00,75.1,63.8,29.85,WSW,256,0.0,0.0,68,0.00,,,0.00,Wunderground v.1.15,2013-08-02 05:56:00,